sensor_id;sensor_type;location;lat;lon;timestamp;P1;P2;P0
34176;PMS7003;20450;49.074;9.158;2023-03-03T00:00:09;49.25;39.50;27.00
34176;PMS7003;20450;49.074;9.158;2023-03-03T00:02:40;52.00;41.25;26.75
34176;PMS7003;20450;49.074;9.158;2023-03-03T00:05:08;51.00;41.25;28.00
34176;PMS7003;20450;49.074;9.158;2023-03-03T00:07:35;50.00;40.75;27.25
34176;PMS7003;20450;49.074;9.158;2023-03-03T00:10:02;54.25;42.75;27.75
34176;PMS7003;20450;49.074;9.158;2023-03-03T00:12:32;54.25;43.25;28.50
34176;PMS7003;20450;49.074;9.158;2023-03-03T00:15:13;46.25;39.00;26.50
34176;PMS7003;20450;49.074;9.158;2023-03-03T00:17:43;51.00;42.00;27.67
34176;PMS7003;20450;49.074;9.158;2023-03-03T00:20:28;50.00;40.00;28.00
34176;PMS7003;20450;49.074;9.158;2023-03-03T00:23:05;49.33;40.33;28.00
34176;PMS7003;20450;49.074;9.158;2023-03-03T00:25:43;50.67;42.33;28.00
34176;PMS7003;20450;49.074;9.158;2023-03-03T00:28:21;51.67;41.33;29.00
34176;PMS7003;20450;49.074;9.158;2023-03-03T00:30:52;52.00;40.00;27.00
34176;PMS7003;20450;49.074;9.158;2023-03-03T00:33:26;53.33;43.00;28.00
34176;PMS7003;20450;49.074;9.158;2023-03-03T00:35:58;56.00;42.67;28.33
34176;PMS7003;20450;49.074;9.158;2023-03-03T00:38:47;54.33;43.67;29.00
34176;PMS7003;20450;49.074;9.158;2023-03-03T00:41:15;53.33;41.67;28.67
34176;PMS7003;20450;49.074;9.158;2023-03-03T00:43:50;48.67;40.33;24.33
34176;PMS7003;20450;49.074;9.158;2023-03-03T00:46:19;51.00;40.67;26.33
34176;PMS7003;20450;49.074;9.158;2023-03-03T00:48:48;46.00;39.67;26.33
34176;PMS7003;20450;49.074;9.158;2023-03-03T00:51:19;49.00;39.00;26.33
34176;PMS7003;20450;49.074;9.158;2023-03-03T00:53:54;51.33;40.67;27.67
34176;PMS7003;20450;49.074;9.158;2023-03-03T00:56:21;50.00;41.00;29.33
34176;PMS7003;20450;49.074;9.158;2023-03-03T00:58:50;52.67;43.00;28.00
34176;PMS7003;20450;49.074;9.158;2023-03-03T01:01:19;53.67;43.00;28.00
34176;PMS7003;20450;49.074;9.158;2023-03-03T01:03:50;31.67;24.33;15.67
34176;PMS7003;20450;49.074;9.158;2023-03-03T01:06:17;55.00;43.67;30.00
34176;PMS7003;20450;49.074;9.158;2023-03-03T01:08:44;55.67;45.00;30.00
34176;PMS7003;20450;49.074;9.158;2023-03-03T01:11:11;55.00;46.00;29.00
34176;PMS7003;20450;49.074;9.158;2023-03-03T01:13:43;52.67;44.00;28.67
34176;PMS7003;20450;49.074;9.158;2023-03-03T01:16:15;49.33;41.67;28.33
34176;PMS7003;20450;49.074;9.158;2023-03-03T01:18:43;58.33;46.00;31.33
34176;PMS7003;20450;49.074;9.158;2023-03-03T01:21:11;55.33;45.00;29.67
34176;PMS7003;20450;49.074;9.158;2023-03-03T01:23:38;37.33;35.00;24.00
34176;PMS7003;20450;49.074;9.158;2023-03-03T01:26:05;56.67;47.00;29.67
34176;PMS7003;20450;49.074;9.158;2023-03-03T01:28:32;53.00;45.67;30.00
34176;PMS7003;20450;49.074;9.158;2023-03-03T01:30:59;50.00;42.00;28.67
34176;PMS7003;20450;49.074;9.158;2023-03-03T01:33:28;46.67;39.00;27.00
34176;PMS7003;20450;49.074;9.158;2023-03-03T01:35:55;52.67;42.67;29.00
34176;PMS7003;20450;49.074;9.158;2023-03-03T01:38:22;56.33;44.33;28.33
34176;PMS7003;20450;49.074;9.158;2023-03-03T01:40:51;55.33;43.00;29.00
34176;PMS7003;20450;49.074;9.158;2023-03-03T01:43:18;59.33;45.67;29.67
34176;PMS7003;20450;49.074;9.158;2023-03-03T01:49:01;54.33;44.33;29.00
34176;PMS7003;20450;49.074;9.158;2023-03-03T01:51:37;54.67;44.67;30.00
34176;PMS7003;20450;49.074;9.158;2023-03-03T01:54:15;54.00;43.67;26.00
34176;PMS7003;20450;49.074;9.158;2023-03-03T01:56:50;59.67;48.33;30.00
34176;PMS7003;20450;49.074;9.158;2023-03-03T01:59:23;53.00;43.67;28.00
34176;PMS7003;20450;49.074;9.158;2023-03-03T02:01:57;59.00;48.00;32.33
34176;PMS7003;20450;49.074;9.158;2023-03-03T02:04:27;56.33;45.00;28.67
34176;PMS7003;20450;49.074;9.158;2023-03-03T02:06:55;56.67;45.67;30.67
34176;PMS7003;20450;49.074;9.158;2023-03-03T02:09:29;51.00;41.00;26.00
34176;PMS7003;20450;49.074;9.158;2023-03-03T02:12:07;53.00;42.00;29.00
34176;PMS7003;20450;49.074;9.158;2023-03-03T02:14:39;55.33;46.00;29.00
34176;PMS7003;20450;49.074;9.158;2023-03-03T02:17:06;53.67;45.00;29.00
34176;PMS7003;20450;49.074;9.158;2023-03-03T02:19:37;57.33;47.33;30.00
34176;PMS7003;20450;49.074;9.158;2023-03-03T02:22:16;55.67;46.33;31.00
34176;PMS7003;20450;49.074;9.158;2023-03-03T02:24:53;47.33;40.00;27.00
34176;PMS7003;20450;49.074;9.158;2023-03-03T02:27:29;51.67;44.67;28.67
34176;PMS7003;20450;49.074;9.158;2023-03-03T02:30:07;53.00;45.67;29.00
34176;PMS7003;20450;49.074;9.158;2023-03-03T02:32:41;50.67;42.00;25.00
34176;PMS7003;20450;49.074;9.158;2023-03-03T02:35:25;50.00;41.00;25.33
34176;PMS7003;20450;49.074;9.158;2023-03-03T02:37:58;46.33;36.33;21.00
34176;PMS7003;20450;49.074;9.158;2023-03-03T02:40:39;53.00;44.67;30.00
34176;PMS7003;20450;49.074;9.158;2023-03-03T02:43:14;55.00;43.33;31.00
34176;PMS7003;20450;49.074;9.158;2023-03-03T02:45:46;55.67;44.67;27.67
34176;PMS7003;20450;49.074;9.158;2023-03-03T02:48:13;45.00;37.33;26.33
34176;PMS7003;20450;49.074;9.158;2023-03-03T02:50:40;50.33;44.00;29.00
34176;PMS7003;20450;49.074;9.158;2023-03-03T02:53:07;53.00;45.00;29.00
34176;PMS7003;20450;49.074;9.158;2023-03-03T02:55:34;57.00;46.00;30.33
34176;PMS7003;20450;49.074;9.158;2023-03-03T02:58:02;54.00;44.67;29.67
34176;PMS7003;20450;49.074;9.158;2023-03-03T03:00:30;54.33;44.67;29.00
34176;PMS7003;20450;49.074;9.158;2023-03-03T03:02:57;50.67;42.33;29.00
34176;PMS7003;20450;49.074;9.158;2023-03-03T03:05:24;41.67;35.67;24.00
34176;PMS7003;20450;49.074;9.158;2023-03-03T03:07:51;50.00;41.67;27.00
34176;PMS7003;20450;49.074;9.158;2023-03-03T03:10:18;53.00;42.67;28.00
34176;PMS7003;20450;49.074;9.158;2023-03-03T03:12:46;51.67;44.33;30.00
34176;PMS7003;20450;49.074;9.158;2023-03-03T03:15:13;48.67;41.67;27.00
34176;PMS7003;20450;49.074;9.158;2023-03-03T03:17:42;54.00;43.67;28.33
34176;PMS7003;20450;49.074;9.158;2023-03-03T03:20:10;58.00;45.00;30.00
34176;PMS7003;20450;49.074;9.158;2023-03-03T03:22:37;47.33;41.00;26.00
34176;PMS7003;20450;49.074;9.158;2023-03-03T03:25:06;49.67;38.00;25.00
34176;PMS7003;20450;49.074;9.158;2023-03-03T03:27:34;45.00;38.67;21.33
34176;PMS7003;20450;49.074;9.158;2023-03-03T03:30:01;46.00;36.33;22.67
34176;PMS7003;20450;49.074;9.158;2023-03-03T03:32:30;50.67;41.00;27.67
34176;PMS7003;20450;49.074;9.158;2023-03-03T03:34:58;56.00;44.00;30.33
34176;PMS7003;20450;49.074;9.158;2023-03-03T03:37:25;55.33;46.00;30.00
34176;PMS7003;20450;49.074;9.158;2023-03-03T03:39:52;51.33;43.00;28.67
34176;PMS7003;20450;49.074;9.158;2023-03-03T03:42:19;57.33;45.67;30.00
34176;PMS7003;20450;49.074;9.158;2023-03-03T03:44:46;54.67;45.00;29.33
34176;PMS7003;20450;49.074;9.158;2023-03-03T03:47:13;56.33;46.00;31.00
34176;PMS7003;20450;49.074;9.158;2023-03-03T03:49:40;59.00;48.00;31.33
34176;PMS7003;20450;49.074;9.158;2023-03-03T03:52:09;42.00;37.00;28.00
34176;PMS7003;20450;49.074;9.158;2023-03-03T03:54:35;46.67;38.67;25.33
34176;PMS7003;20450;49.074;9.158;2023-03-03T03:57:02;50.67;39.33;25.00
34176;PMS7003;20450;49.074;9.158;2023-03-03T03:59:29;51.67;43.33;29.67
34176;PMS7003;20450;49.074;9.158;2023-03-03T04:01:57;51.00;40.33;24.33
34176;PMS7003;20450;49.074;9.158;2023-03-03T04:04:24;51.33;40.33;25.00
34176;PMS7003;20450;49.074;9.158;2023-03-03T04:06:55;57.33;46.00;29.00
34176;PMS7003;20450;49.074;9.158;2023-03-03T04:09:26;56.00;45.67;29.00
34176;PMS7003;20450;49.074;9.158;2023-03-03T04:11:53;55.00;45.00;30.00
34176;PMS7003;20450;49.074;9.158;2023-03-03T04:14:20;53.33;43.00;26.00
34176;PMS7003;20450;49.074;9.158;2023-03-03T04:16:47;55.67;45.00;30.00
34176;PMS7003;20450;49.074;9.158;2023-03-03T04:19:15;59.67;46.67;30.67
34176;PMS7003;20450;49.074;9.158;2023-03-03T04:21:42;54.00;43.33;29.00
34176;PMS7003;20450;49.074;9.158;2023-03-03T04:24:09;51.67;42.67;29.00
34176;PMS7003;20450;49.074;9.158;2023-03-03T04:26:38;58.00;43.33;29.00
34176;PMS7003;20450;49.074;9.158;2023-03-03T04:29:05;53.67;45.33;30.33
34176;PMS7003;20450;49.074;9.158;2023-03-03T04:31:33;55.00;45.00;29.33
34176;PMS7003;20450;49.074;9.158;2023-03-03T04:34:01;56.67;45.33;29.67
34176;PMS7003;20450;49.074;9.158;2023-03-03T04:36:29;59.00;48.33;30.67
34176;PMS7003;20450;49.074;9.158;2023-03-03T04:38:57;55.33;45.33;30.00
34176;PMS7003;20450;49.074;9.158;2023-03-03T04:41:24;52.33;43.00;29.00
34176;PMS7003;20450;49.074;9.158;2023-03-03T04:43:52;55.00;42.00;28.00
34176;PMS7003;20450;49.074;9.158;2023-03-03T04:46:19;58.67;44.67;28.67
34176;PMS7003;20450;49.074;9.158;2023-03-03T04:48:46;57.00;46.00;32.00
34176;PMS7003;20450;49.074;9.158;2023-03-03T04:51:14;56.00;46.33;31.00
34176;PMS7003;20450;49.074;9.158;2023-03-03T04:53:43;58.67;46.00;31.00
34176;PMS7003;20450;49.074;9.158;2023-03-03T04:56:10;51.67;42.33;29.33
34176;PMS7003;20450;49.074;9.158;2023-03-03T04:58:37;51.33;42.67;29.67
34176;PMS7003;20450;49.074;9.158;2023-03-03T05:01:06;59.67;46.67;30.67
34176;PMS7003;20450;49.074;9.158;2023-03-03T05:03:36;54.67;44.67;31.00
34176;PMS7003;20450;49.074;9.158;2023-03-03T05:06:03;58.00;45.00;29.00
34176;PMS7003;20450;49.074;9.158;2023-03-03T05:08:30;55.67;45.00;29.00
34176;PMS7003;20450;49.074;9.158;2023-03-03T05:10:57;58.33;47.33;31.00
34176;PMS7003;20450;49.074;9.158;2023-03-03T05:13:25;63.00;51.33;33.67
34176;PMS7003;20450;49.074;9.158;2023-03-03T05:15:52;58.33;47.67;31.00
34176;PMS7003;20450;49.074;9.158;2023-03-03T05:18:22;53.00;44.67;29.00
34176;PMS7003;20450;49.074;9.158;2023-03-03T05:20:51;56.00;44.33;30.33
34176;PMS7003;20450;49.074;9.158;2023-03-03T05:23:18;45.00;37.00;22.00
34176;PMS7003;20450;49.074;9.158;2023-03-03T05:25:46;54.00;45.33;30.33
34176;PMS7003;20450;49.074;9.158;2023-03-03T05:28:13;62.00;49.33;31.33
34176;PMS7003;20450;49.074;9.158;2023-03-03T05:30:41;56.00;45.33;30.00
34176;PMS7003;20450;49.074;9.158;2023-03-03T05:33:09;61.33;48.67;31.33
34176;PMS7003;20450;49.074;9.158;2023-03-03T05:35:42;61.00;50.00;31.00
34176;PMS7003;20450;49.074;9.158;2023-03-03T05:38:09;59.67;48.00;31.00
34176;PMS7003;20450;49.074;9.158;2023-03-03T05:40:37;58.00;47.33;30.33
34176;PMS7003;20450;49.074;9.158;2023-03-03T05:43:04;56.33;46.00;30.67
34176;PMS7003;20450;49.074;9.158;2023-03-03T05:45:31;56.00;46.67;30.33
34176;PMS7003;20450;49.074;9.158;2023-03-03T05:47:58;57.67;46.67;30.67
34176;PMS7003;20450;49.074;9.158;2023-03-03T05:50:25;54.67;46.00;31.33
34176;PMS7003;20450;49.074;9.158;2023-03-03T05:52:53;55.33;45.00;29.00
34176;PMS7003;20450;49.074;9.158;2023-03-03T05:55:20;61.33;49.33;31.33
34176;PMS7003;20450;49.074;9.158;2023-03-03T05:57:47;55.00;44.33;30.00
34176;PMS7003;20450;49.074;9.158;2023-03-03T06:00:15;56.00;47.00;30.00
34176;PMS7003;20450;49.074;9.158;2023-03-03T06:02:43;55.67;44.33;29.00
34176;PMS7003;20450;49.074;9.158;2023-03-03T06:05:10;54.67;43.00;30.00
34176;PMS7003;20450;49.074;9.158;2023-03-03T06:07:37;52.67;42.67;28.00
34176;PMS7003;20450;49.074;9.158;2023-03-03T06:10:06;51.00;42.33;29.00
34176;PMS7003;20450;49.074;9.158;2023-03-03T06:12:38;53.67;45.00;30.00
34176;PMS7003;20450;49.074;9.158;2023-03-03T06:15:05;51.33;41.00;25.67
34176;PMS7003;20450;49.074;9.158;2023-03-03T06:17:33;56.33;43.33;29.00
34176;PMS7003;20450;49.074;9.158;2023-03-03T06:20:00;55.00;43.33;27.67
34176;PMS7003;20450;49.074;9.158;2023-03-03T06:22:27;55.67;44.00;29.00
34176;PMS7003;20450;49.074;9.158;2023-03-03T06:24:54;52.67;44.00;30.33
34176;PMS7003;20450;49.074;9.158;2023-03-03T06:27:22;55.67;44.33;27.00
34176;PMS7003;20450;49.074;9.158;2023-03-03T06:29:49;48.00;40.00;26.67
34176;PMS7003;20450;49.074;9.158;2023-03-03T06:32:16;47.33;37.00;26.00
34176;PMS7003;20450;49.074;9.158;2023-03-03T06:34:43;46.33;39.00;27.00
34176;PMS7003;20450;49.074;9.158;2023-03-03T06:37:10;46.67;38.33;26.00
34176;PMS7003;20450;49.074;9.158;2023-03-03T06:39:37;45.33;37.33;25.33
34176;PMS7003;20450;49.074;9.158;2023-03-03T06:42:04;43.00;36.33;24.00
34176;PMS7003;20450;49.074;9.158;2023-03-03T06:44:32;43.33;36.00;25.33
34176;PMS7003;20450;49.074;9.158;2023-03-03T06:46:59;44.33;38.33;25.00
34176;PMS7003;20450;49.074;9.158;2023-03-03T06:49:26;46.33;37.00;25.00
34176;PMS7003;20450;49.074;9.158;2023-03-03T06:51:53;45.00;36.33;24.33
34176;PMS7003;20450;49.074;9.158;2023-03-03T06:54:20;36.50;30.00;16.00
34176;PMS7003;20450;49.074;9.158;2023-03-03T06:56:58;32.75;30.75;21.75
34176;PMS7003;20450;49.074;9.158;2023-03-03T06:59:40;34.50;26.50;18.25
34176;PMS7003;20450;49.074;9.158;2023-03-03T07:02:10;30.50;27.50;18.75
34176;PMS7003;20450;49.074;9.158;2023-03-03T07:04:43;36.75;35.50;21.00
34176;PMS7003;20450;49.074;9.158;2023-03-03T07:07:14;39.50;33.25;20.25
34176;PMS7003;20450;49.074;9.158;2023-03-03T07:09:45;78.00;59.25;34.50
34176;PMS7003;20450;49.074;9.158;2023-03-03T07:12:15;38.75;38.75;23.75
34176;PMS7003;20450;49.074;9.158;2023-03-03T07:14:47;56.25;43.00;26.00
34176;PMS7003;20450;49.074;9.158;2023-03-03T07:17:18;55.00;43.75;26.00
34176;PMS7003;20450;49.074;9.158;2023-03-03T07:19:46;47.50;39.25;24.00
34176;PMS7003;20450;49.074;9.158;2023-03-03T07:22:14;31.50;25.00;17.75
34176;PMS7003;20450;49.074;9.158;2023-03-03T07:24:44;42.25;37.00;25.50
34176;PMS7003;20450;49.074;9.158;2023-03-03T07:27:16;35.75;32.50;22.75
34176;PMS7003;20450;49.074;9.158;2023-03-03T07:29:51;48.25;42.25;29.00
34176;PMS7003;20450;49.074;9.158;2023-03-03T07:32:22;43.50;42.00;24.50
34176;PMS7003;20450;49.074;9.158;2023-03-03T07:34:54;42.25;35.75;24.50
34176;PMS7003;20450;49.074;9.158;2023-03-03T07:37:26;41.75;30.75;21.00
34176;PMS7003;20450;49.074;9.158;2023-03-03T07:39:56;42.00;39.75;27.50
34176;PMS7003;20450;49.074;9.158;2023-03-03T07:42:26;37.00;35.25;24.00
34176;PMS7003;20450;49.074;9.158;2023-03-03T07:45:23;33.00;30.75;21.75
34176;PMS7003;20450;49.074;9.158;2023-03-03T07:47:55;38.50;36.75;24.75
34176;PMS7003;20450;49.074;9.158;2023-03-03T07:50:32;32.75;32.00;22.00
34176;PMS7003;20450;49.074;9.158;2023-03-03T07:53:00;39.25;36.00;22.00
34176;PMS7003;20450;49.074;9.158;2023-03-03T07:55:32;31.75;31.25;20.00
34176;PMS7003;20450;49.074;9.158;2023-03-03T07:58:14;24.50;21.50;14.50
34176;PMS7003;20450;49.074;9.158;2023-03-03T08:04:10;36.25;34.50;25.50
34176;PMS7003;20450;49.074;9.158;2023-03-03T08:06:45;30.00;28.25;22.00
34176;PMS7003;20450;49.074;9.158;2023-03-03T08:09:25;31.75;31.00;22.75
34176;PMS7003;20450;49.074;9.158;2023-03-03T08:15:15;41.50;35.50;23.75
34176;PMS7003;20450;49.074;9.158;2023-03-03T08:17:50;32.33;28.67;22.00
34176;PMS7003;20450;49.074;9.158;2023-03-03T08:23:11;38.33;35.00;23.33
34176;PMS7003;20450;49.074;9.158;2023-03-03T08:25:41;28.00;28.00;20.00
34176;PMS7003;20450;49.074;9.158;2023-03-03T08:28:09;32.00;28.75;21.25
34176;PMS7003;20450;49.074;9.158;2023-03-03T08:30:37;32.00;28.50;21.00
34176;PMS7003;20450;49.074;9.158;2023-03-03T08:33:05;29.75;28.75;21.25
34176;PMS7003;20450;49.074;9.158;2023-03-03T08:35:33;27.00;26.25;19.50
34176;PMS7003;20450;49.074;9.158;2023-03-03T08:38:00;31.00;30.50;22.25
34176;PMS7003;20450;49.074;9.158;2023-03-03T08:40:28;30.00;28.50;21.50
34176;PMS7003;20450;49.074;9.158;2023-03-03T08:42:55;35.25;33.25;23.50
34176;PMS7003;20450;49.074;9.158;2023-03-03T08:45:23;29.00;28.50;21.50
34176;PMS7003;20450;49.074;9.158;2023-03-03T08:47:50;36.33;32.67;21.67
34176;PMS7003;20450;49.074;9.158;2023-03-03T08:50:19;42.00;34.00;24.00
34176;PMS7003;20450;49.074;9.158;2023-03-03T08:52:47;31.67;30.33;22.67
34176;PMS7003;20450;49.074;9.158;2023-03-03T08:55:14;35.33;33.00;21.33
34176;PMS7003;20450;49.074;9.158;2023-03-03T08:57:41;32.00;31.67;22.00
34176;PMS7003;20450;49.074;9.158;2023-03-03T09:00:09;33.00;29.33;21.00
34176;PMS7003;20450;49.074;9.158;2023-03-03T09:02:40;38.25;32.25;22.50
34176;PMS7003;20450;49.074;9.158;2023-03-03T09:05:08;34.25;34.25;23.75
34176;PMS7003;20450;49.074;9.158;2023-03-03T09:07:38;33.00;30.25;22.00
34176;PMS7003;20450;49.074;9.158;2023-03-03T09:10:06;42.75;35.25;23.50
34176;PMS7003;20450;49.074;9.158;2023-03-03T09:12:36;39.25;35.00;24.50
34176;PMS7003;20450;49.074;9.158;2023-03-03T09:15:11;32.00;29.50;17.50
34176;PMS7003;20450;49.074;9.158;2023-03-03T09:17:45;36.50;36.50;26.00
34176;PMS7003;20450;49.074;9.158;2023-03-03T09:20:20;38.75;34.25;24.75
34176;PMS7003;20450;49.074;9.158;2023-03-03T09:22:58;29.25;27.00;19.25
34176;PMS7003;20450;49.074;9.158;2023-03-03T09:25:49;36.50;32.75;23.00
34176;PMS7003;20450;49.074;9.158;2023-03-03T09:28:18;32.00;31.25;22.50
34176;PMS7003;20450;49.074;9.158;2023-03-03T09:30:51;38.75;32.75;22.25
34176;PMS7003;20450;49.074;9.158;2023-03-03T09:33:25;35.75;33.00;22.75
34176;PMS7003;20450;49.074;9.158;2023-03-03T09:35:58;32.25;32.00;22.75
34176;PMS7003;20450;49.074;9.158;2023-03-03T09:38:40;32.25;28.00;20.00
34176;PMS7003;20450;49.074;9.158;2023-03-03T09:44:40;30.00;28.75;21.75
34176;PMS7003;20450;49.074;9.158;2023-03-03T09:47:48;33.00;31.00;22.25
34176;PMS7003;20450;49.074;9.158;2023-03-03T09:50:46;36.50;33.50;22.25
34176;PMS7003;20450;49.074;9.158;2023-03-03T09:53:26;34.75;32.50;23.25
34176;PMS7003;20450;49.074;9.158;2023-03-03T09:56:11;32.00;30.00;21.25
34176;PMS7003;20450;49.074;9.158;2023-03-03T09:58:52;32.67;30.33;22.33
34176;PMS7003;20450;49.074;9.158;2023-03-03T10:01:44;38.00;32.67;20.67
34176;PMS7003;20450;49.074;9.158;2023-03-03T10:04:36;30.67;24.00;16.33
34176;PMS7003;20450;49.074;9.158;2023-03-03T10:07:17;33.67;27.67;21.67
34176;PMS7003;20450;49.074;9.158;2023-03-03T10:10:12;37.33;33.67;22.33
34176;PMS7003;20450;49.074;9.158;2023-03-03T10:12:58;32.00;31.00;22.00
34176;PMS7003;20450;49.074;9.158;2023-03-03T10:15:45;35.75;31.00;21.75
34176;PMS7003;20450;49.074;9.158;2023-03-03T10:18:32;32.75;31.25;22.75
34176;PMS7003;20450;49.074;9.158;2023-03-03T10:21:09;28.50;28.25;20.25
34176;PMS7003;20450;49.074;9.158;2023-03-03T10:23:51;33.50;31.75;21.75
34176;PMS7003;20450;49.074;9.158;2023-03-03T10:26:40;30.50;29.75;21.75
34176;PMS7003;20450;49.074;9.158;2023-03-03T10:29:40;33.75;31.75;21.25
34176;PMS7003;20450;49.074;9.158;2023-03-03T10:32:38;33.50;32.00;22.75
34176;PMS7003;20450;49.074;9.158;2023-03-03T10:35:17;38.25;33.25;23.25
34176;PMS7003;20450;49.074;9.158;2023-03-03T10:38:00;32.00;29.50;20.25
34176;PMS7003;20450;49.074;9.158;2023-03-03T10:40:49;30.00;29.25;21.50
34176;PMS7003;20450;49.074;9.158;2023-03-03T10:43:39;36.75;32.75;22.50
34176;PMS7003;20450;49.074;9.158;2023-03-03T10:46:56;42.00;35.50;24.00
34176;PMS7003;20450;49.074;9.158;2023-03-03T10:49:50;36.25;32.75;22.75
34176;PMS7003;20450;49.074;9.158;2023-03-03T10:52:36;37.50;33.50;22.50
34176;PMS7003;20450;49.074;9.158;2023-03-03T10:55:35;41.75;34.25;22.75
34176;PMS7003;20450;49.074;9.158;2023-03-03T10:58:20;35.25;32.50;22.50
34176;PMS7003;20450;49.074;9.158;2023-03-03T11:01:12;31.50;26.25;19.50
34176;PMS7003;20450;49.074;9.158;2023-03-03T11:04:08;34.25;31.50;23.00
34176;PMS7003;20450;49.074;9.158;2023-03-03T11:06:50;40.75;34.00;23.50
34176;PMS7003;20450;49.074;9.158;2023-03-03T11:09:34;36.75;32.25;22.25
34176;PMS7003;20450;49.074;9.158;2023-03-03T11:12:19;33.00;30.50;19.75
34176;PMS7003;20450;49.074;9.158;2023-03-03T11:15:06;37.50;33.00;23.25
34176;PMS7003;20450;49.074;9.158;2023-03-03T11:18:00;28.75;28.75;21.50
34176;PMS7003;20450;49.074;9.158;2023-03-03T11:20:43;33.25;31.50;20.00
34176;PMS7003;20450;49.074;9.158;2023-03-03T11:23:26;39.50;32.25;23.00
34176;PMS7003;20450;49.074;9.158;2023-03-03T11:26:20;29.75;29.50;17.75
34176;PMS7003;20450;49.074;9.158;2023-03-03T11:29:20;31.50;31.00;22.50
34176;PMS7003;20450;49.074;9.158;2023-03-03T11:32:15;62.25;49.50;32.00
34176;PMS7003;20450;49.074;9.158;2023-03-03T11:35:15;42.00;36.00;25.00
34176;PMS7003;20450;49.074;9.158;2023-03-03T11:37:56;37.25;32.50;21.50
34176;PMS7003;20450;49.074;9.158;2023-03-03T11:40:46;36.25;31.50;21.00
34176;PMS7003;20450;49.074;9.158;2023-03-03T11:43:18;33.00;32.25;22.50
34176;PMS7003;20450;49.074;9.158;2023-03-03T11:46:03;37.75;33.50;23.25
34176;PMS7003;20450;49.074;9.158;2023-03-03T11:48:37;38.75;33.50;22.50
34176;PMS7003;20450;49.074;9.158;2023-03-03T11:51:18;31.25;29.50;21.25
34176;PMS7003;20450;49.074;9.158;2023-03-03T11:53:58;38.00;34.25;24.50
34176;PMS7003;20450;49.074;9.158;2023-03-03T11:56:33;38.25;34.50;23.75
34176;PMS7003;20450;49.074;9.158;2023-03-03T11:59:19;38.00;34.25;24.25
34176;PMS7003;20450;49.074;9.158;2023-03-03T12:05:11;53.00;43.75;30.00
34176;PMS7003;20450;49.074;9.158;2023-03-03T12:08:01;37.50;32.00;22.25
34176;PMS7003;20450;49.074;9.158;2023-03-03T12:10:47;36.25;32.50;22.00
34176;PMS7003;20450;49.074;9.158;2023-03-03T12:13:27;42.00;37.00;24.67
34176;PMS7003;20450;49.074;9.158;2023-03-03T12:16:10;40.00;34.67;23.67
34176;PMS7003;20450;49.074;9.158;2023-03-03T12:18:57;44.75;34.50;22.75
34176;PMS7003;20450;49.074;9.158;2023-03-03T12:21:55;37.00;35.50;23.75
34176;PMS7003;20450;49.074;9.158;2023-03-03T12:24:57;40.75;37.00;24.75
34176;PMS7003;20450;49.074;9.158;2023-03-03T12:27:57;22.75;17.50;10.00
34176;PMS7003;20450;49.074;9.158;2023-03-03T12:30:38;41.50;37.00;24.50
34176;PMS7003;20450;49.074;9.158;2023-03-03T12:33:25;43.50;38.25;26.50
34176;PMS7003;20450;49.074;9.158;2023-03-03T12:36:17;43.75;35.50;23.25
34176;PMS7003;20450;49.074;9.158;2023-03-03T12:39:11;47.00;38.25;24.50
34176;PMS7003;20450;49.074;9.158;2023-03-03T12:42:03;42.75;36.75;24.75
34176;PMS7003;20450;49.074;9.158;2023-03-03T12:44:46;33.75;33.25;22.25
34176;PMS7003;20450;49.074;9.158;2023-03-03T12:47:28;44.00;35.75;23.75
34176;PMS7003;20450;49.074;9.158;2023-03-03T12:50:10;38.75;36.00;24.00
34176;PMS7003;20450;49.074;9.158;2023-03-03T12:52:59;44.25;39.75;24.25
34176;PMS7003;20450;49.074;9.158;2023-03-03T12:55:44;42.25;36.00;25.75
34176;PMS7003;20450;49.074;9.158;2023-03-03T12:58:24;43.00;35.25;24.50
34176;PMS7003;20450;49.074;9.158;2023-03-03T13:01:28;37.50;33.50;22.75
34176;PMS7003;20450;49.074;9.158;2023-03-03T13:04:09;44.25;37.00;25.50
34176;PMS7003;20450;49.074;9.158;2023-03-03T13:06:57;45.00;40.50;27.00
34176;PMS7003;20450;49.074;9.158;2023-03-03T13:09:36;48.75;41.75;27.50
34176;PMS7003;20450;49.074;9.158;2023-03-03T13:12:27;35.75;33.25;24.00
34176;PMS7003;20450;49.074;9.158;2023-03-03T13:15:09;44.75;39.75;27.00
34176;PMS7003;20450;49.074;9.158;2023-03-03T13:17:57;44.25;38.25;25.75
34176;PMS7003;20450;49.074;9.158;2023-03-03T13:20:48;36.75;34.25;26.25
34176;PMS7003;20450;49.074;9.158;2023-03-03T13:23:28;43.25;40.00;26.00
34176;PMS7003;20450;49.074;9.158;2023-03-03T13:26:15;49.00;40.25;27.25
34176;PMS7003;20450;49.074;9.158;2023-03-03T13:28:55;40.50;37.00;24.25
34176;PMS7003;20450;49.074;9.158;2023-03-03T13:35:52;32.75;31.25;19.25
34176;PMS7003;20450;49.074;9.158;2023-03-03T13:38:24;41.50;38.00;25.50
34176;PMS7003;20450;49.074;9.158;2023-03-03T13:40:56;45.50;42.00;26.50
34176;PMS7003;20450;49.074;9.158;2023-03-03T13:43:37;49.50;41.00;24.75
34176;PMS7003;20450;49.074;9.158;2023-03-03T13:46:14;41.75;38.50;25.50
34176;PMS7003;20450;49.074;9.158;2023-03-03T13:49:02;42.25;38.75;24.50
34176;PMS7003;20450;49.074;9.158;2023-03-03T13:51:54;38.50;32.25;24.25
34176;PMS7003;20450;49.074;9.158;2023-03-03T13:57:37;38.00;35.00;19.75
34176;PMS7003;20450;49.074;9.158;2023-03-03T14:00:25;53.50;43.25;28.50
34176;PMS7003;20450;49.074;9.158;2023-03-03T14:03:12;40.00;38.00;24.75
34176;PMS7003;20450;49.074;9.158;2023-03-03T14:06:07;43.50;37.50;26.00
34176;PMS7003;20450;49.074;9.158;2023-03-03T14:08:49;51.50;42.50;30.50
34176;PMS7003;20450;49.074;9.158;2023-03-03T14:11:32;55.00;45.00;33.25
34176;PMS7003;20450;49.074;9.158;2023-03-03T14:14:15;61.25;49.50;36.00
34176;PMS7003;20450;49.074;9.158;2023-03-03T14:17:08;60.50;48.75;35.00
34176;PMS7003;20450;49.074;9.158;2023-03-03T14:19:56;24.50;19.75;7.50
34176;PMS7003;20450;49.074;9.158;2023-03-03T14:22:40;44.00;39.00;26.75
34176;PMS7003;20450;49.074;9.158;2023-03-03T14:25:18;49.00;42.50;26.25
34176;PMS7003;20450;49.074;9.158;2023-03-03T14:28:00;44.25;40.50;29.00
34176;PMS7003;20450;49.074;9.158;2023-03-03T14:30:37;71.00;57.00;37.75
34176;PMS7003;20450;49.074;9.158;2023-03-03T14:33:16;44.50;38.00;26.00
34176;PMS7003;20450;49.074;9.158;2023-03-03T14:35:49;48.00;40.00;27.75
34176;PMS7003;20450;49.074;9.158;2023-03-03T14:38:34;56.50;47.75;34.75
34176;PMS7003;20450;49.074;9.158;2023-03-03T14:41:13;43.50;42.25;29.75
34176;PMS7003;20450;49.074;9.158;2023-03-03T14:43:45;43.25;39.25;30.25
34176;PMS7003;20450;49.074;9.158;2023-03-03T14:46:31;48.75;43.25;31.00
34176;PMS7003;20450;49.074;9.158;2023-03-03T14:49:04;46.25;38.50;26.00
34176;PMS7003;20450;49.074;9.158;2023-03-03T14:51:41;50.00;44.50;28.25
34176;PMS7003;20450;49.074;9.158;2023-03-03T14:54:15;46.25;39.50;28.50
34176;PMS7003;20450;49.074;9.158;2023-03-03T14:56:59;44.25;40.50;28.00